Nearby METAR Reports

 

KNUQ - Moffett Nas/Mtn, California, USA
Distance from station: N 9mi, 14km
Updated: Thu, 21-Nov-2019 8:56am PST
NOT Current

 
Barometer: 29.86 inHg , 1011.2 hPa
2019/11/21 16:56 KNUQ 211656Z AUTO A2986 RMK AO2 SLP116 PWINO $
KSJC - San Jose, California, USA
Distance from station: NE 9mi, 14km
Updated: Fri, 22-Nov-2019 7:53am PST
Few Clouds
Few Clouds
 Wind from SSE
Wind: SSE 3 mph , 6 km/h
Temperature: 46°F , 8°C
Dew Point: 43°F , 6°C
Humidity: 87%
Barometer: 30.18 inHg , 1022 hPa
Clouds: Few Clouds
Visibility: 10 miles , 16 km
Cloud details: Few Clouds 100 ft
2019/11/22 15:53 KSJC 221553Z 15003KT 10SM FEW001 08/06 A3018 RMK AO2 SLP218 T00830061
 
KRHV - San Jose/Reid, California, USA
Distance from station: ENE 12mi, 19km
Updated: Thu, 21-Nov-2019 3:47pm PST
NOT Current
Clear
Clear
 Wind from calm
Wind: Calm
Temperature: 64°F , 18°C
Dew Point: 45°F , 7°C
Humidity: 49%
Barometer: 29.89 inHg , 1012.2 hPa
Clouds: Clear
Visibility: 10 miles , 16 km
2019/11/21 23:47 KRHV 212347Z 00000KT 10SM SKC 18/07 A2989
KPAO - Palo Alto, California, USA
Distance from station: NNW 14mi, 23km
Updated: Fri, 22-Nov-2019 6:47am PST
NOT Current
Clear
Clear
 Wind from calm
Wind: Calm
Temperature: 43°F , 6°C
Dew Point: 41°F , 5°C
Humidity: 93%
Barometer: 30.16 inHg , 1021.3 hPa
Clouds: Clear
Visibility: 10 miles , 16 km
2019/11/22 14:47 KPAO 221447Z 00000KT 10SM SKC 06/05 A3016
 
KSQL - San Carlos Airpo, California, USA
Distance from station: NW 21mi, 34km
Updated: Fri, 22-Nov-2019 7:52am PST
Haze, Partly cloudy
Haze, Partly cloudy
 Wind from varies
Wind: varies 5 mph , 7 km/h
Temperature: 48°F , 9°C
Wind Chill: 46°F , 8°C
Dew Point: 46°F , 8°C
Humidity: 94%
Barometer: 30.18 inHg , 1022 hPa
Summary: Haze
Clouds: Partly Cloudy
Visibility: 6 miles , 10 km
Cloud details: Partly Cloudy 1900 ft
2019/11/22 15:52 KSQL 221552Z VRB04KT 6SM HZ SCT019 09/08 A3018
KWVI - Watsonville, California, USA
Distance from station: SSE 27mi, 44km
Updated: Fri, 22-Nov-2019 7:53am PST
Clear
Clear
 Wind from ENE
Wind: ENE 5 mph , 7 km/h
Temperature: 46°F , 8°C
Wind Chill: 44°F , 7°C
Dew Point: 43°F , 6°C
Humidity: 87%
Barometer: 30.17 inHg , 1021.7 hPa
Clouds: Clear
Visibility: 10 miles , 16 km
2019/11/22 15:53 KWVI 221553Z AUTO 06004KT 10SM CLR 08/06 A3017 RMK AO2 SLP217 T00780061
 
KHWD - Hayward, California, USA
Distance from station: N 28mi, 44km
Updated: Fri, 22-Nov-2019 7:54am PST
Clear
Clear
 Wind from ENE
Wind: ENE 3 mph , 6 km/h
Temperature: 48°F , 9°C
Dew Point: 45°F , 7°C
Humidity: 87%
Barometer: 30.17 inHg , 1021.7 hPa
Clouds: Clear
Visibility: 10 miles , 16 km
2019/11/22 15:54 KHWD 221554Z 07003KT 10SM CLR 09/07 A3017 RMK AO2 SLP226 T00890067
KSFO - San Francisco, California, USA
Distance from station: NW 30mi, 49km
Updated: Fri, 22-Nov-2019 7:56am PST
Few Clouds
Few Clouds
 Wind from SSE
Wind: SSE 6 mph , 9 km/h
Temperature: 54°F , 12°C
Dew Point: 48°F , 9°C
Humidity: 82%
Barometer: 30.17 inHg , 1021.7 hPa
Clouds: Few Clouds
Visibility: 9 miles , 14 km
Cloud details: Few Clouds 1200 ft
Few Clouds 2600 ft
2019/11/22 15:56 KSFO 221556Z 15005KT 9SM FEW012 FEW026 12/09 A3017 RMK AO2 SLP215 T01170089
 
KHAF - Half Moon Bay, California, USA
Distance from station: WNW 31mi, 50km
Updated: Fri, 22-Nov-2019 8:35am PST
Clear
Clear
 Wind from calm
Wind: Calm
Temperature: 54°F , 12°C
Dew Point: 48°F , 9°C
Humidity: 82%
Barometer: 30.17 inHg , 1021.7 hPa
Clouds: Clear
Visibility: 7 miles , 11 km
2019/11/22 16:35 KHAF 221635Z AUTO 00000KT 7SM CLR 12/09 A3017 RMK AO2
KOAK - Oakland, California, USA
Distance from station: NNW 31mi, 50km
Updated: Fri, 22-Nov-2019 7:53am PST
Mist, Few clouds
Mist, Few clouds
 Wind from calm
Wind: Calm
Temperature: 48°F , 9°C
Dew Point: 45°F , 7°C
Humidity: 87%
Barometer: 30.17 inHg , 1021.7 hPa
Summary: Mist
Clouds: Few Clouds
Visibility: 5 miles , 8 km
Cloud details: Few Clouds 2000 ft
2019/11/22 15:53 KOAK 221553Z 00000KT 5SM BR FEW020 09/07 A3017 RMK AO2 SLP217 T00940072
 
KLVK - Livermore, California, USA
Distance from station: NNE 31mi, 51km
Updated: Fri, 22-Nov-2019 7:53am PST
Clear
Clear
 Wind from calm
Wind: Calm
Temperature: 43°F , 6°C
Dew Point: 39°F , 4°C
Humidity: 87%
Barometer: 30.17 inHg , 1021.7 hPa
Clouds: Clear
Visibility: 9 miles , 14 km
2019/11/22 15:53 KLVK 221553Z 00000KT 9SM CLR 06/04 A3017 RMK AO2 SLP216 T00610039
KCVH - Hollister Muni, California, USA
Distance from station: SE 42mi, 68km
Updated: Fri, 22-Nov-2019 8:35am PST
Clear
Clear
 Wind from calm
Wind: Calm
Temperature: 45°F , 7°C
Dew Point: 41°F , 5°C
Humidity: 87%
Barometer: 30.20 inHg , 1022.7 hPa
Clouds: Clear
Visibility: 10 miles , 16 km
2019/11/22 16:35 KCVH 221635Z AUTO 00000KT 10SM CLR 07/05 A3020 RMK A01
 
KSNS - Salinas, California, USA
Distance from station: SSE 48mi, 77km
Updated: Fri, 22-Nov-2019 7:53am PST
Mist, Overcast
Mist, Overcast
 Wind from SSE
Wind: SSE 12 mph , 19 km/h
Temperature: 46°F , 8°C
Wind Chill: 40°F , 4°C
Dew Point: 45°F , 7°C
Humidity: 93%
Barometer: 30.16 inHg , 1021.3 hPa
Summary: Mist
Clouds: Overcast
Visibility: 4 miles , 6 km
Cloud details: Overcast 300 ft
2019/11/22 15:53 KSNS 221553Z 15010KT 4SM BR OVC003 08/07 A3016 RMK AO2 SLP223 T00830072
KMRY - Monterey, California, USA
Distance from station: SSE 49mi, 78km
Updated: Fri, 22-Nov-2019 7:54am PST
Clear
Clear
 Wind from ESE
Wind: ESE 6 mph , 9 km/h
Temperature: 52°F , 11°C
Dew Point: 45°F , 7°C
Humidity: 77%
Barometer: 30.16 inHg , 1021.3 hPa
Clouds: Clear
Visibility: 10 miles , 16 km
2019/11/22 15:54 KMRY 221554Z 12005KT 10SM CLR 11/07 A3016 RMK AO2 SLP224 T01110072
 
KCCR - Concord, California, USA
Distance from station: N 50mi, 81km
Updated: Fri, 22-Nov-2019 7:53am PST
Clear
Clear
 Wind from SSE
Wind: SSE 3 mph , 6 km/h
Temperature: 46°F , 8°C
Dew Point: 41°F , 5°C
Humidity: 82%
Barometer: 30.18 inHg , 1022 hPa
Clouds: Clear
Visibility: 10 miles , 16 km
2019/11/22 15:53 KCCR 221553Z 16003KT 10SM CLR 08/05 A3018 RMK AO2 SLP206 T00780050

Metar display script from Saratoga-Weather.org